Time;durP1;ratioP1;P1;durP2;ratioP2;P2;SDS_P1;SDS_P2;PMS_P1;PMS_P2;Temp;Humidity;BMP_temperature;BMP_pressure;BME280_temperature;BME280_humidity;BME280_pressure;Samples;Min_cycle;Max_cycle;Signal;HPM_P1;HPM_P2
2021/05/28 00:01:03;;;;;;;7.33;6.60;;;12.40;78.50;;;;;;5037927;28;20487;-48
2021/05/28 00:03:31;;;;;;;8.20;7.40;;;12.40;78.70;;;;;;5040831;28;20468;-48
2021/05/28 00:05:59;;;;;;;8.40;7.10;;;12.40;78.70;;;;;;5038816;28;20452;-48
2021/05/28 00:08:27;;;;;;;9.50;7.50;;;12.40;78.60;;;;;;5041375;28;20493;-48
2021/05/28 00:10:55;;;;;;;12.83;7.63;;;12.30;78.70;;;;;;5042432;28;20989;-48
2021/05/28 00:13:23;;;;;;;12.03;7.80;;;12.30;78.90;;;;;;5040668;28;20450;-48
2021/05/28 00:15:51;;;;;;;10.50;7.50;;;12.40;79.40;;;;;;5038610;28;20474;-48
2021/05/28 00:18:19;;;;;;;12.93;8.03;;;12.40;79.50;;;;;;5044819;28;20461;-49
2021/05/28 00:20:47;;;;;;;8.53;7.47;;;12.40;79.50;;;;;;5039719;28;20458;-48
2021/05/28 00:23:15;;;;;;;12.90;10.50;;;12.40;79.70;;;;;;5037896;28;20475;-48
2021/05/28 00:25:43;;;;;;;10.77;7.83;;;12.30;79.70;;;;;;5039730;28;20454;-48
2021/05/28 00:28:11;;;;;;;8.70;7.17;;;12.30;79.80;;;;;;5042842;28;20979;-48
2021/05/28 00:30:39;;;;;;;10.37;7.97;;;12.30;80.00;;;;;;5042834;28;20436;-48
2021/05/28 00:33:08;;;;;;;8.93;6.87;;;12.30;80.10;;;;;;5039626;28;21083;-48
2021/05/28 00:35:36;;;;;;;12.10;8.80;;;12.30;80.30;;;;;;5037801;28;20952;-48
2021/05/28 00:38:04;;;;;;;10.33;8.17;;;12.30;80.30;;;;;;5039386;28;20451;-48
2021/05/28 00:40:32;;;;;;;11.63;8.20;;;12.30;80.30;;;;;;5041026;28;20443;-48
2021/05/28 00:43:00;;;;;;;13.07;8.47;;;12.30;80.30;;;;;;5040189;28;20500;-48
2021/05/28 00:45:28;;;;;;;10.90;7.40;;;12.20;80.50;;;;;;5041866;28;21228;-48
2021/05/28 00:47:56;;;;;;;12.67;8.43;;;12.20;80.60;;;;;;5040862;28;20517;-48
2021/05/28 00:50:28;;;;;;;10.90;7.60;;;12.20;80.60;;;;;;5038969;28;20479;-48
2021/05/28 00:52:58;;;;;;;12.20;7.93;;;12.20;80.60;;;;;;5039788;28;20459;-48
2021/05/28 00:55:27;;;;;;;12.70;7.63;;;12.20;80.60;;;;;;5040711;28;20458;-48
2021/05/28 00:57:56;;;;;;;11.83;8.40;;;12.10;80.50;;;;;;5038591;28;20454;-48
2021/05/28 01:00:27;;;;;;;9.07;7.73;;;12.10;80.50;;;;;;5041749;28;20620;-48
2021/05/28 01:02:56;;;;;;;12.87;8.17;;;12.10;80.70;;;;;;5040921;28;20490;-48
2021/05/28 01:05:27;;;;;;;12.47;9.10;;;12.10;80.90;;;;;;5040773;28;20509;-47
2021/05/28 01:07:55;;;;;;;9.80;7.97;;;12.10;80.80;;;;;;5042205;28;20475;-47
2021/05/28 01:10:23;;;;;;;9.70;7.57;;;12.10;80.80;;;;;;5041803;28;20459;-48
2021/05/28 01:12:51;;;;;;;11.20;7.30;;;12.10;80.50;;;;;;5043317;28;20454;-48
2021/05/28 01:15:19;;;;;;;10.10;8.47;;;12.00;80.50;;;;;;5039448;28;20473;-48
2021/05/28 01:17:47;;;;;;;13.37;7.57;;;12.00;80.70;;;;;;5043510;28;20462;-47
2021/05/28 01:20:15;;;;;;;12.83;8.20;;;12.00;80.80;;;;;;5044911;28;20474;-47
2021/05/28 01:22:43;;;;;;;10.60;8.60;;;12.00;80.90;;;;;;5044506;28;20497;-48
2021/05/28 01:25:12;;;;;;;11.73;8.40;;;12.00;81.10;;;;;;5045277;28;20463;-48
2021/05/28 01:27:40;;;;;;;12.40;8.40;;;12.00;81.30;;;;;;5044882;28;20477;-47
2021/05/28 01:30:08;;;;;;;10.73;7.50;;;12.00;81.30;;;;;;5040594;28;20448;-48
2021/05/28 01:32:36;;;;;;;9.40;7.73;;;12.00;81.40;;;;;;5046154;28;20451;-47
2021/05/28 01:35:05;;;;;;;13.57;9.50;;;12.00;81.30;;;;;;5043554;28;20927;-47
2021/05/28 01:37:33;;;;;;;12.20;8.00;;;12.00;81.30;;;;;;5041229;28;20458;-48
2021/05/28 01:40:03;;;;;;;11.70;8.20;;;12.00;81.30;;;;;;5045039;28;20469;-48
2021/05/28 01:42:31;;;;;;;10.40;8.20;;;11.90;81.40;;;;;;5043101;28;20493;-48
2021/05/28 01:45:01;;;;;;;12.10;9.33;;;11.90;81.30;;;;;;5043561;28;20459;-48
2021/05/28 01:47:30;;;;;;;13.70;9.07;;;11.90;81.30;;;;;;5045449;28;20461;-48
2021/05/28 01:49:58;;;;;;;14.70;9.80;;;11.90;81.20;;;;;;5044666;28;20465;-48
2021/05/28 01:52:27;;;;;;;15.30;10.37;;;11.90;81.20;;;;;;5044583;28;20462;-48
2021/05/28 01:54:56;;;;;;;12.90;8.93;;;11.90;81.10;;;;;;5042729;28;20464;-46
2021/05/28 01:57:24;;;;;;;11.53;9.10;;;11.80;81.10;;;;;;5042062;28;20517;-47
2021/05/28 01:59:51;;;;;;;12.20;10.37;;;11.80;81.00;;;;;;5042693;28;20932;-48
2021/05/28 02:02:19;;;;;;;11.20;8.70;;;11.80;81.10;;;;;;5038870;28;20507;-48
2021/05/28 02:04:47;;;;;;;13.00;9.50;;;11.70;81.10;;;;;;5043052;28;20808;-48
2021/05/28 02:07:15;;;;;;;13.00;9.77;;;11.70;81.10;;;;;;5047029;28;20496;-47
2021/05/28 02:09:43;;;;;;;12.80;9.53;;;11.70;81.10;;;;;;5042899;28;20486;-47
2021/05/28 02:12:11;;;;;;;15.43;10.47;;;11.60;81.20;;;;;;5045334;28;20475;-48
2021/05/28 02:14:39;;;;;;;16.07;10.90;;;11.60;81.30;;;;;;5043644;28;20925;-47
2021/05/28 02:17:10;;;;;;;11.30;10.10;;;11.60;81.30;;;;;;5040835;28;20450;-48
2021/05/28 02:19:38;;;;;;;14.33;11.27;;;11.60;81.30;;;;;;5043068;28;21239;-47
2021/05/28 02:22:10;;;;;;;17.23;11.03;;;11.50;81.40;;;;;;5043582;28;20490;-48
2021/05/28 02:24:38;;;;;;;14.70;9.77;;;11.50;81.50;;;;;;5042576;28;20454;-48
2021/05/28 02:27:06;;;;;;;13.80;10.73;;;11.40;81.60;;;;;;5041139;28;20448;-49
2021/05/28 02:29:34;;;;;;;14.53;11.47;;;11.40;81.70;;;;;;5042137;28;20451;-49
2021/05/28 02:32:02;;;;;;;13.77;10.97;;;11.40;81.80;;;;;;5039785;28;20463;-49
2021/05/28 02:34:30;;;;;;;19.17;11.80;;;11.40;81.90;;;;;;5041595;28;20470;-50
2021/05/28 02:36:58;;;;;;;14.23;10.77;;;11.40;82.10;;;;;;5042712;28;20811;-49
2021/05/28 02:39:26;;;;;;;16.53;11.27;;;11.40;82.10;;;;;;5040737;28;20533;-49
2021/05/28 02:41:54;;;;;;;14.63;10.83;;;11.40;82.20;;;;;;5042823;28;20497;-49
2021/05/28 02:44:22;;;;;;;16.40;10.90;;;11.40;82.20;;;;;;5042143;28;20456;-49
2021/05/28 02:46:50;;;;;;;13.80;11.40;;;11.40;82.20;;;;;;5042003;28;20462;-49
2021/05/28 02:49:18;;;;;;;15.60;11.47;;;11.40;82.30;;;;;;5042904;28;20471;-49
2021/05/28 02:51:46;;;;;;;14.80;10.73;;;11.40;82.40;;;;;;5042974;28;20880;-49
2021/05/28 02:54:14;;;;;;;15.50;11.20;;;11.40;82.50;;;;;;5040803;28;20458;-49
2021/05/28 02:56:42;;;;;;;12.60;10.20;;;11.50;82.60;;;;;;5044841;28;21018;-49
2021/05/28 02:59:11;;;;;;;13.73;10.13;;;11.50;82.40;;;;;;5041780;28;21034;-49
2021/05/28 03:01:40;;;;;;;15.27;11.10;;;11.50;82.30;;;;;;5041176;28;20498;-49
2021/05/28 03:04:08;;;;;;;15.70;10.50;;;11.50;82.20;;;;;;5041972;28;20458;-49
2021/05/28 03:06:36;;;;;;;15.50;11.50;;;11.50;82.30;;;;;;5041334;28;20458;-49
2021/05/28 03:09:04;;;;;;;14.00;11.27;;;11.50;82.30;;;;;;5043036;28;20485;-49
2021/05/28 03:11:32;;;;;;;17.17;10.90;;;11.40;82.30;;;;;;5041171;28;20950;-49
2021/05/28 03:14:01;;;;;;;17.00;11.47;;;11.40;82.30;;;;;;5042494;28;20455;-49
2021/05/28 03:16:29;;;;;;;16.00;10.17;;;11.40;82.40;;;;;;5041025;28;20458;-49
2021/05/28 03:18:58;;;;;;;13.70;10.20;;;11.40;82.50;;;;;;5036792;28;20964;-49
2021/05/28 03:24:00;;;;;;;15.63;10.07;;;11.40;82.80;;;;;;5042581;28;20466;-49
2021/05/28 03:26:29;;;;;;;15.87;10.63;;;11.40;82.80;;;;;;5040822;28;20455;-49
2021/05/28 03:28:59;;;;;;;14.57;11.10;;;11.40;82.80;;;;;;5039563;28;20458;-49
2021/05/28 03:31:27;;;;;;;15.77;12.17;;;11.40;82.80;;;;;;5040360;28;20455;-49
2021/05/28 03:33:55;;;;;;;18.37;11.30;;;11.40;82.80;;;;;;5040347;28;20455;-49
2021/05/28 03:36:23;;;;;;;16.13;11.13;;;11.40;83.00;;;;;;5039071;28;20454;-49
2021/05/28 03:38:51;;;;;;;16.13;10.63;;;11.40;83.10;;;;;;5042260;28;20463;-49
2021/05/28 03:41:18;;;;;;;15.83;11.70;;;11.40;83.10;;;;;;5040892;28;20455;-49
2021/05/28 03:43:46;;;;;;;20.73;12.80;;;11.40;83.20;;;;;;5040799;28;20483;-49
2021/05/28 03:46:17;;;;;;;19.27;12.27;;;11.50;83.30;;;;;;5041593;28;20466;-49
2021/05/28 03:48:45;;;;;;;14.70;10.87;;;11.50;83.10;;;;;;5038807;28;20790;-49
2021/05/28 03:51:14;;;;;;;18.40;11.73;;;11.50;83.10;;;;;;5043381;28;20463;-49
2021/05/28 03:53:42;;;;;;;15.33;12.07;;;11.50;83.20;;;;;;5040656;28;20920;-49
2021/05/28 03:56:10;;;;;;;15.87;12.20;;;11.50;83.20;;;;;;5041079;28;20481;-49
2021/05/28 03:58:38;;;;;;;16.43;11.53;;;11.50;83.00;;;;;;5039106;28;20462;-49
2021/05/28 04:01:06;;;;;;;14.00;10.80;;;11.50;83.10;;;;;;5037202;28;20470;-49
2021/05/28 04:03:34;;;;;;;17.40;11.50;;;11.50;83.00;;;;;;5045168;28;20485;-49
2021/05/28 04:06:02;;;;;;;15.93;12.00;;;11.50;83.10;;;;;;5039496;28;20462;-49
2021/05/28 04:08:30;;;;;;;15.23;11.40;;;11.50;83.20;;;;;;5042639;28;20478;-49
2021/05/28 04:10:58;;;;;;;15.97;11.90;;;11.50;83.30;;;;;;5042191;28;20456;-49
2021/05/28 04:13:30;;;;;;;16.77;11.83;;;11.50;83.30;;;;;;5039026;28;20464;-49
2021/05/28 04:16:00;;;;;;;15.30;12.20;;;11.50;83.20;;;;;;5043469;28;20462;-49
2021/05/28 04:18:28;;;;;;;16.00;12.70;;;11.40;83.20;;;;;;5037626;28;20474;-49
2021/05/28 04:20:56;;;;;;;17.77;12.50;;;11.40;83.30;;;;;;5041142;28;20467;-49
2021/05/28 04:23:24;;;;;;;17.70;12.43;;;11.40;83.40;;;;;;5042629;28;20494;-49
2021/05/28 04:25:52;;;;;;;17.70;11.23;;;11.40;83.30;;;;;;5043120;28;20455;-49
2021/05/28 04:28:20;;;;;;;20.27;11.90;;;11.50;83.20;;;;;;5043121;28;20461;-49
2021/05/28 04:30:49;;;;;;;16.20;12.33;;;11.50;83.20;;;;;;5040165;28;20477;-49
2021/05/28 04:33:17;;;;;;;15.00;12.00;;;11.50;83.10;;;;;;5041732;28;21127;-49
2021/05/28 04:35:45;;;;;;;16.87;10.90;;;11.50;83.10;;;;;;5038354;28;20665;-49
2021/05/28 04:38:13;;;;;;;16.50;11.17;;;11.50;83.20;;;;;;5040185;28;21110;-49
2021/05/28 04:40:42;;;;;;;13.60;10.43;;;11.40;83.20;;;;;;5043579;28;20463;-50
2021/05/28 04:43:10;;;;;;;16.70;12.10;;;11.40;83.40;;;;;;5040128;28;20521;-49
2021/05/28 04:45:39;;;;;;;14.60;10.97;;;11.50;83.50;;;;;;5044809;28;20980;-49
2021/05/28 04:48:07;;;;;;;26.27;12.80;;;11.50;83.60;;;;;;5041830;28;20470;-49
2021/05/28 04:50:36;;;;;;;15.60;11.30;;;11.50;83.70;;;;;;5045965;28;20935;-49
2021/05/28 04:53:06;;;;;;;15.30;11.13;;;11.60;83.80;;;;;;5044860;28;20928;-49
2021/05/28 04:55:34;;;;;;;17.63;12.30;;;11.60;83.70;;;;;;5044625;28;20493;-49
2021/05/28 04:58:03;;;;;;;15.37;11.30;;;11.60;83.80;;;;;;5044283;28;20458;-49
2021/05/28 05:00:32;;;;;;;18.97;12.20;;;11.60;83.90;;;;;;5046382;28;20973;-49
2021/05/28 05:03:00;;;;;;;16.40;11.80;;;11.60;83.80;;;;;;5041778;28;20789;-49
2021/05/28 05:05:28;;;;;;;17.67;12.00;;;11.70;83.70;;;;;;5044401;28;20477;-49
2021/05/28 05:07:56;;;;;;;15.53;11.77;;;11.70;83.80;;;;;;5042239;28;20483;-49
2021/05/28 05:10:24;;;;;;;19.67;12.40;;;11.80;83.80;;;;;;5048444;28;20466;-49
2021/05/28 05:12:52;;;;;;;20.40;13.07;;;11.80;83.80;;;;;;5043710;28;20462;-49
2021/05/28 05:15:20;;;;;;;19.13;11.93;;;11.90;83.60;;;;;;5043367;28;20494;-49
2021/05/28 05:17:48;;;;;;;20.20;14.70;;;11.90;83.50;;;;;;5042581;28;20966;-49
2021/05/28 05:20:16;;;;;;;19.87;13.47;;;12.00;83.30;;;;;;5041211;28;20470;-49
2021/05/28 05:22:44;;;;;;;20.23;14.30;;;12.00;83.20;;;;;;5047744;28;20988;-49
2021/05/28 05:25:12;;;;;;;21.70;13.37;;;12.00;83.30;;;;;;5040388;28;20464;-49
2021/05/28 05:27:41;;;;;;;18.30;12.43;;;12.10;83.10;;;;;;5045534;28;20462;-49
2021/05/28 05:30:09;;;;;;;14.93;13.10;;;12.10;83.10;;;;;;5047784;28;20450;-49
2021/05/28 05:32:37;;;;;;;18.80;11.80;;;12.20;82.90;;;;;;5048162;28;20458;-49
2021/05/28 05:35:06;;;;;;;22.70;14.10;;;12.30;82.50;;;;;;5041863;28;20452;-49
2021/05/28 05:37:34;;;;;;;19.33;12.93;;;12.40;81.90;;;;;;5043282;28;20459;-49
2021/05/28 05:40:03;;;;;;;20.77;13.23;;;12.50;80.70;;;;;;5044489;28;20959;-49
2021/05/28 05:42:31;;;;;;;19.77;12.37;;;12.60;80.50;;;;;;5043395;28;20482;-49
2021/05/28 05:44:59;;;;;;;17.03;12.70;;;12.60;80.20;;;;;;5041284;28;20484;-49
2021/05/28 05:47:27;;;;;;;18.03;12.27;;;12.80;79.20;;;;;;5042687;28;20454;-49
2021/05/28 05:49:55;;;;;;;17.40;12.17;;;12.90;78.70;;;;;;5044942;28;20482;-49
2021/05/28 05:52:24;;;;;;;17.00;12.67;;;12.90;78.70;;;;;;5041178;28;20916;-49
2021/05/28 05:54:52;;;;;;;17.27;11.90;;;12.90;78.50;;;;;;5044123;28;20470;-49
2021/05/28 05:57:24;;;;;;;17.20;11.90;;;12.90;78.70;;;;;;5045329;28;20464;-49
2021/05/28 05:59:52;;;;;;;16.57;12.40;;;12.90;78.90;;;;;;5042162;28;21319;-49
2021/05/28 06:02:20;;;;;;;15.37;11.30;;;13.00;79.10;;;;;;5041614;28;20469;-49
2021/05/28 06:04:48;;;;;;;17.40;12.27;;;13.00;78.80;;;;;;5043554;28;20465;-49
2021/05/28 06:07:16;;;;;;;13.90;11.57;;;13.10;77.90;;;;;;5042846;28;20489;-49
2021/05/28 06:09:44;;;;;;;15.27;12.33;;;13.20;77.00;;;;;;5043096;28;20486;-49
2021/05/28 06:12:12;;;;;;;19.17;12.37;;;13.20;76.60;;;;;;5042436;28;20462;-49
2021/05/28 06:14:41;;;;;;;18.63;10.90;;;13.30;76.40;;;;;;5043202;28;21888;-50
2021/05/28 06:17:09;;;;;;;17.17;9.83;;;13.20;76.80;;;;;;5042016;28;20459;-49
2021/05/28 06:19:37;;;;;;;17.87;12.00;;;13.20;76.90;;;;;;5043526;28;20469;-49
2021/05/28 06:22:05;;;;;;;15.70;11.60;;;13.30;76.90;;;;;;5040602;28;20471;-49
2021/05/28 06:24:33;;;;;;;18.77;10.80;;;13.30;77.00;;;;;;5040369;28;20490;-49
2021/05/28 06:27:01;;;;;;;15.43;11.60;;;13.30;77.10;;;;;;5040305;28;20545;-49
2021/05/28 06:29:29;;;;;;;12.90;10.50;;;13.30;76.80;;;;;;5043864;28;20458;-49
2021/05/28 06:32:02;;;;;;;15.23;9.63;;;13.40;76.80;;;;;;5038900;28;20531;-49
2021/05/28 06:34:31;;;;;;;17.53;12.83;;;13.50;76.10;;;;;;5043346;28;20964;-49
2021/05/28 06:37:00;;;;;;;14.17;10.40;;;13.50;75.40;;;;;;5041902;28;20462;-49
2021/05/28 06:39:28;;;;;;;15.80;10.30;;;13.60;75.00;;;;;;5042097;28;20466;-50
2021/05/28 06:41:56;;;;;;;11.23;9.73;;;13.60;75.50;;;;;;5041686;28;20467;-49
2021/05/28 06:44:24;;;;;;;13.17;9.50;;;13.60;75.80;;;;;;5043572;28;20483;-49
2021/05/28 06:46:53;;;;;;;12.43;10.03;;;13.60;75.80;;;;;;5042610;28;20458;-49
2021/05/28 06:49:21;;;;;;;13.47;9.87;;;13.70;74.90;;;;;;5041670;28;20451;-49
2021/05/28 06:51:51;;;;;;;12.67;9.63;;;13.70;74.80;;;;;;5042861;28;20887;-49
2021/05/28 06:54:19;;;;;;;15.30;10.10;;;13.70;74.80;;;;;;5041280;28;20923;-49
2021/05/28 06:56:47;;;;;;;11.43;9.73;;;13.70;74.80;;;;;;5045335;28;21014;-49
2021/05/28 06:59:15;;;;;;;13.37;10.23;;;13.70;75.00;;;;;;5042821;28;20455;-49
2021/05/28 07:01:43;;;;;;;16.73;9.70;;;13.80;75.50;;;;;;5038062;28;20494;-49
2021/05/28 07:04:11;;;;;;;10.93;9.73;;;13.90;75.50;;;;;;5038965;28;20508;-49
2021/05/28 07:06:39;;;;;;;17.67;9.50;;;14.00;75.20;;;;;;5043446;28;20455;-49
2021/05/28 07:09:07;;;;;;;16.13;8.87;;;14.30;74.60;;;;;;5040287;28;20488;-49
2021/05/28 07:11:36;;;;;;;12.13;8.73;;;14.50;73.80;;;;;;5042383;28;20462;-49
2021/05/28 07:14:04;;;;;;;13.20;8.63;;;14.70;73.50;;;;;;5038681;28;20473;-49
2021/05/28 07:16:33;;;;;;;11.63;8.33;;;14.90;72.60;;;;;;5041256;28;20462;-49
2021/05/28 07:19:01;;;;;;;8.90;7.50;;;15.10;71.70;;;;;;5039144;28;20467;-49
2021/05/28 07:21:29;;;;;;;10.17;7.43;;;15.30;70.40;;;;;;5037793;28;21085;-49
2021/05/28 07:23:57;;;;;;;9.30;7.17;;;15.40;70.20;;;;;;5041191;28;20490;-49
2021/05/28 07:26:25;;;;;;;10.47;7.90;;;15.50;69.80;;;;;;5037442;28;21023;-49
2021/05/28 07:28:53;;;;;;;11.43;7.83;;;15.70;70.40;;;;;;5041652;28;20454;-49
2021/05/28 07:31:21;;;;;;;11.30;7.23;;;15.90;69.70;;;;;;5040556;28;20459;-48
2021/05/28 07:33:49;;;;;;;10.00;7.30;;;16.10;68.60;;;;;;5040752;28;20466;-48
2021/05/28 07:36:17;;;;;;;9.20;7.60;;;16.20;66.90;;;;;;5041960;28;20462;-48
2021/05/28 07:38:45;;;;;;;9.80;7.13;;;16.20;66.80;;;;;;5042051;28;20467;-48
2021/05/28 07:41:13;;;;;;;7.37;6.60;;;16.20;66.80;;;;;;5039729;28;20463;-48
2021/05/28 07:43:41;;;;;;;11.83;7.53;;;16.10;67.50;;;;;;5039816;28;20501;-48
2021/05/28 07:46:10;;;;;;;7.90;6.60;;;16.10;66.40;;;;;;5041665;28;20447;-48
2021/05/28 07:48:38;;;;;;;6.50;5.83;;;16.10;66.40;;;;;;5043425;28;20458;-49
2021/05/28 07:51:06;;;;;;;8.17;6.13;;;16.10;67.30;;;;;;5043596;28;20450;-48
2021/05/28 07:53:34;;;;;;;12.10;6.63;;;16.20;66.30;;;;;;5043753;28;20470;-48
2021/05/28 07:56:06;;;;;;;8.33;5.60;;;16.30;65.90;;;;;;5039834;28;20462;-48
2021/05/28 07:58:34;;;;;;;11.50;5.97;;;16.50;65.80;;;;;;5043478;28;20470;-49
2021/05/28 08:01:02;;;;;;;11.63;6.60;;;16.70;65.20;;;;;;5039891;28;21001;-48
2021/05/28 08:03:30;;;;;;;6.90;6.20;;;16.80;64.80;;;;;;5040051;28;20482;-48
2021/05/28 08:05:59;;;;;;;5.20;3.77;;;16.90;64.00;;;;;;5045016;28;20469;-48
2021/05/28 08:08:28;;;;;;;4.93;4.23;;;16.90;63.40;;;;;;5039886;28;20867;-49
2021/05/28 08:10:56;;;;;;;4.60;3.53;;;17.10;62.70;;;;;;5040853;28;20466;-49
2021/05/28 08:13:24;;;;;;;3.00;2.43;;;17.20;63.00;;;;;;5043921;28;20470;-48
2021/05/28 08:15:54;;;;;;;7.43;3.73;;;17.40;62.40;;;;;;5043421;28;20485;-48
2021/05/28 08:18:22;;;;;;;6.40;2.53;;;17.60;61.40;;;;;;5039823;28;20916;-48
2021/05/28 08:20:50;;;;;;;4.03;2.90;;;17.60;61.00;;;;;;5043327;28;20457;-49
2021/05/28 08:23:18;;;;;;;3.80;3.40;;;17.60;60.90;;;;;;5042897;28;20482;-50
2021/05/28 08:25:49;;;;;;;5.10;2.60;;;17.60;60.20;;;;;;5044220;28;20953;-49
2021/05/28 08:28:18;;;;;;;3.50;3.20;;;17.50;60.90;;;;;;5043780;28;20471;-49
2021/05/28 08:30:46;;;;;;;4.30;2.50;;;17.50;60.20;;;;;;5044198;28;20459;-49
2021/05/28 08:33:15;;;;;;;2.53;2.33;;;17.40;61.60;;;;;;5041753;28;20463;-49
2021/05/28 08:35:44;;;;;;;3.77;2.70;;;17.50;61.60;;;;;;5045553;28;20794;-48
2021/05/28 08:38:13;;;;;;;3.10;2.80;;;17.70;61.00;;;;;;5046300;28;20977;-49
2021/05/28 08:40:42;;;;;;;6.70;3.03;;;17.90;60.80;;;;;;5045839;28;20484;-49
2021/05/28 08:43:10;;;;;;;3.83;2.70;;;18.20;60.60;;;;;;5043526;28;21019;-49
2021/05/28 08:45:40;;;;;;;4.20;2.10;;;18.50;59.40;;;;;;5043874;28;20451;-49
2021/05/28 08:48:10;;;;;;;3.17;2.87;;;18.80;57.80;;;;;;5043877;28;20514;-49
2021/05/28 08:50:40;;;;;;;3.43;2.20;;;19.00;56.70;;;;;;5045197;28;20956;-49
2021/05/28 08:53:12;;;;;;;2.73;2.27;;;19.20;57.70;;;;;;5046270;28;20457;-49
2021/05/28 08:55:41;;;;;;;2.90;2.13;;;19.40;56.90;;;;;;5044181;28;20470;-49
2021/05/28 08:58:15;;;;;;;4.57;2.20;;;19.50;53.00;;;;;;5045251;28;20524;-49
2021/05/28 09:00:45;;;;;;;2.53;2.33;;;19.50;53.50;;;;;;5045642;28;20501;-49
2021/05/28 09:03:20;;;;;;;3.57;2.53;;;19.40;54.40;;;;;;5044405;28;20466;-49
2021/05/28 09:05:57;;;;;;;3.10;2.80;;;19.20;55.40;;;;;;5043060;28;20454;-49
2021/05/28 09:08:31;;;;;;;3.17;2.87;;;19.00;56.00;;;;;;5044345;28;20563;-49
2021/05/28 09:11:07;;;;;;;4.63;2.83;;;18.80;57.00;;;;;;5042632;28;20552;-48
2021/05/28 09:13:46;;;;;;;2.73;2.30;;;18.70;57.00;;;;;;5049672;28;20477;-48
2021/05/28 09:16:17;;;;;;;4.77;2.97;;;18.60;57.30;;;;;;5045128;28;20458;-48
2021/05/28 09:18:58;;;;;;;4.50;3.20;;;18.60;56.40;;;;;;5042252;28;20465;-48
2021/05/28 09:21:30;;;;;;;5.50;3.07;;;18.80;56.40;;;;;;5043073;28;20450;-48
2021/05/28 09:24:04;;;;;;;5.87;2.93;;;19.00;56.10;;;;;;5043508;28;20479;-49
2021/05/28 09:26:33;;;;;;;3.63;2.40;;;19.30;55.10;;;;;;5044238;28;20455;-49
2021/05/28 09:29:06;;;;;;;4.73;2.77;;;19.50;54.60;;;;;;5041714;28;20498;-49
2021/05/28 09:31:34;;;;;;;3.73;1.90;;;19.90;53.90;;;;;;5042227;28;20462;-49
2021/05/28 09:34:04;;;;;;;4.23;2.57;;;20.50;52.60;;;;;;5044021;28;21255;-48
2021/05/28 09:36:37;;;;;;;3.00;2.47;;;20.70;51.60;;;;;;5043494;28;20462;-48
2021/05/28 09:39:14;;;;;;;4.97;2.30;;;20.70;51.00;;;;;;5040531;28;20455;-49
2021/05/28 09:41:53;;;;;;;4.30;1.93;;;20.50;50.20;;;;;;5043293;28;20562;-49
2021/05/28 09:44:28;;;;;;;4.50;2.20;;;20.30;50.80;;;;;;5042488;28;20576;-49
2021/05/28 09:47:01;;;;;;;2.40;2.20;;;20.10;52.40;;;;;;5043053;28;20475;-49
2021/05/28 09:49:32;;;;;;;4.83;2.97;;;19.80;52.20;;;;;;5043681;28;20519;-49
2021/05/28 09:52:25;;;;;;;2.50;2.30;;;19.60;52.70;;;;;;5040923;28;20455;-49
2021/05/28 09:55:03;;;;;;;4.50;2.97;;;19.30;53.00;;;;;;5040763;28;20485;-49
2021/05/28 09:57:43;;;;;;;4.03;2.70;;;19.00;54.30;;;;;;5041002;28;20510;-49
2021/05/28 10:00:21;;;;;;;5.63;2.50;;;18.80;55.20;;;;;;5044562;28;20478;-49
2021/05/28 10:03:15;;;;;;;2.70;2.50;;;18.60;54.30;;;;;;5041248;28;20927;-49
2021/05/28 10:06:05;;;;;;;5.80;2.93;;;18.40;54.80;;;;;;5043445;28;20965;-49
2021/05/28 10:08:33;;;;;;;3.33;2.80;;;18.20;55.60;;;;;;5041803;28;20482;-49
2021/05/28 10:11:02;;;;;;;2.93;2.53;;;18.00;55.90;;;;;;5043929;28;20828;-48
2021/05/28 10:13:30;;;;;;;3.47;2.97;;;17.80;56.20;;;;;;5042531;28;21058;-49
2021/05/28 10:16:00;;;;;;;2.93;2.30;;;17.70;56.70;;;;;;5041862;28;20456;-49
2021/05/28 10:18:29;;;;;;;4.63;2.53;;;17.60;57.10;;;;;;5041556;28;20461;-49
2021/05/28 10:20:57;;;;;;;3.20;2.87;;;17.60;57.00;;;;;;5041530;28;20447;-49
2021/05/28 10:23:25;;;;;;;4.30;2.87;;;17.50;56.50;;;;;;5043505;28;20505;-49
2021/05/28 10:25:58;;;;;;;3.50;3.20;;;17.40;56.80;;;;;;5041683;28;20451;-49
2021/05/28 10:28:32;;;;;;;7.00;2.63;;;17.30;57.40;;;;;;5040320;28;20542;-49
2021/05/28 10:31:00;;;;;;;4.03;2.60;;;17.20;58.10;;;;;;5042112;28;20465;-49
2021/05/28 10:33:31;;;;;;;5.07;2.80;;;17.20;58.40;;;;;;5043133;28;20525;-49
2021/05/28 10:36:10;;;;;;;3.23;2.97;;;17.10;59.10;;;;;;5042588;28;20470;-49
2021/05/28 10:38:40;;;;;;;2.70;2.43;;;17.20;59.20;;;;;;5040489;28;20463;-49
2021/05/28 10:41:13;;;;;;;2.47;2.10;;;17.30;56.90;;;;;;5042336;28;20549;-49
2021/05/28 10:43:51;;;;;;;3.10;1.83;;;17.40;56.80;;;;;;5043762;28;20508;-49
2021/05/28 10:46:19;;;;;;;2.40;2.10;;;17.40;56.80;;;;;;5039428;28;20485;-49
2021/05/28 10:48:48;;;;;;;4.30;2.27;;;17.50;56.30;;;;;;5040183;28;20464;-49
2021/05/28 10:51:43;;;;;;;2.23;2.03;;;17.70;55.40;;;;;;5044433;28;20788;-49
2021/05/28 10:54:16;;;;;;;5.93;2.50;;;17.80;55.50;;;;;;5041197;28;20459;-49
2021/05/28 10:56:45;;;;;;;2.73;2.37;;;18.00;56.30;;;;;;5046404;28;20446;-49
2021/05/28 10:59:18;;;;;;;2.90;2.30;;;18.10;55.80;;;;;;5041717;28;20473;-49
2021/05/28 11:01:56;;;;;;;4.60;2.37;;;18.10;56.00;;;;;;5042390;28;20470;-49
2021/05/28 11:04:27;;;;;;;5.23;1.97;;;18.00;56.30;;;;;;5039192;28;20517;-49
2021/05/28 11:06:59;;;;;;;5.47;1.80;;;18.00;56.70;;;;;;5040135;28;20435;-49
2021/05/28 11:09:47;;;;;;;3.70;2.03;;;18.00;55.80;;;;;;5039650;28;20483;-49
2021/05/28 11:12:21;;;;;;;2.60;1.83;;;18.00;54.40;;;;;;5042578;28;20455;-49
2021/05/28 11:15:10;;;;;;;3.00;2.10;;;17.90;54.20;;;;;;5042324;28;22351;-50
2021/05/28 11:17:54;;;;;;;3.80;2.13;;;17.90;54.20;;;;;;5039871;28;20510;-50
2021/05/28 11:20:31;;;;;;;2.63;1.77;;;17.80;54.60;;;;;;5041311;28;20939;-50
2021/05/28 11:23:01;;;;;;;3.03;2.37;;;17.80;54.70;;;;;;5041079;28;20482;-49
2021/05/28 11:25:32;;;;;;;3.73;1.97;;;17.80;54.60;;;;;;5040893;28;20483;-49
2021/05/28 11:28:06;;;;;;;2.10;1.70;;;17.80;54.60;;;;;;5042237;28;20470;-49
2021/05/28 11:30:50;;;;;;;3.20;2.17;;;17.70;54.70;;;;;;5042659;28;20455;-49
2021/05/28 11:33:35;;;;;;;4.20;1.90;;;17.60;55.40;;;;;;5043538;28;20604;-49
2021/05/28 11:36:27;;;;;;;2.77;1.60;;;17.50;56.10;;;;;;5041938;28;20459;-49
2021/05/28 11:38:58;;;;;;;3.67;2.30;;;17.40;56.00;;;;;;5039767;28;20461;-49
2021/05/28 11:41:46;;;;;;;4.03;2.03;;;17.50;55.80;;;;;;5043499;28;20469;-49
2021/05/28 11:44:16;;;;;;;2.03;1.90;;;17.50;55.90;;;;;;5039217;28;20475;-49
2021/05/28 11:46:47;;;;;;;2.70;1.70;;;17.50;55.70;;;;;;5039854;28;20463;-49
2021/05/28 11:49:17;;;;;;;3.23;2.00;;;17.60;55.30;;;;;;5041608;28;20472;-49
2021/05/28 11:51:46;;;;;;;2.00;1.80;;;17.70;55.30;;;;;;5042391;28;20454;-49
2021/05/28 11:54:26;;;;;;;3.27;1.70;;;17.80;55.90;;;;;;5039987;28;20550;-49
2021/05/28 11:57:01;;;;;;;2.80;2.50;;;17.90;55.60;;;;;;5041082;28;20473;-49
2021/05/28 11:59:49;;;;;;;3.00;2.10;;;18.10;55.20;;;;;;5036533;28;20964;-49
2021/05/28 12:02:43;;;;;;;1.90;1.70;;;18.20;54.20;;;;;;5037688;28;21673;-49
2021/05/28 12:05:20;;;;;;;1.43;1.33;;;18.30;53.80;;;;;;5043934;28;20494;-49
2021/05/28 12:07:51;;;;;;;1.63;1.53;;;18.40;53.40;;;;;;5044280;28;20469;-50
2021/05/28 12:10:21;;;;;;;2.97;2.00;;;18.50;53.40;;;;;;5042727;28;20478;-49
2021/05/28 12:12:55;;;;;;;3.10;2.17;;;18.60;52.20;;;;;;5038623;28;20462;-50
2021/05/28 12:15:46;;;;;;;2.23;1.83;;;18.70;51.70;;;;;;5041915;28;21178;-49
2021/05/28 12:18:23;;;;;;;2.13;1.40;;;18.70;51.00;;;;;;5039358;28;20459;-49
2021/05/28 12:21:12;;;;;;;4.13;1.43;;;18.60;51.40;;;;;;5044346;28;20459;-49
2021/05/28 12:23:42;;;;;;;3.10;1.80;;;18.60;51.70;;;;;;5041388;28;20458;-49
2021/05/28 12:26:15;;;;;;;1.63;1.53;;;18.60;50.50;;;;;;5043415;28;20486;-49
2021/05/28 12:28:45;;;;;;;1.80;1.33;;;18.60;50.20;;;;;;5039896;28;20454;-49
2021/05/28 12:31:14;;;;;;;1.63;1.53;;;18.60;50.30;;;;;;5043510;28;20457;-49
2021/05/28 12:33:55;;;;;;;2.87;1.73;;;18.60;51.00;;;;;;5042111;28;20466;-50
2021/05/28 12:36:28;;;;;;;5.50;1.77;;;18.60;51.70;;;;;;5042053;28;20509;-50
2021/05/28 12:38:57;;;;;;;1.73;1.63;;;18.50;51.70;;;;;;5040833;28;20458;-50
2021/05/28 12:41:32;;;;;;;2.50;1.63;;;18.50;50.80;;;;;;5038242;28;20960;-50
2021/05/28 12:44:01;;;;;;;2.13;1.93;;;18.60;51.10;;;;;;5042381;28;21046;-49
2021/05/28 12:46:33;;;;;;;2.63;1.83;;;18.60;51.10;;;;;;5038612;28;20469;-49
2021/05/28 12:49:05;;;;;;;1.70;1.60;;;18.60;50.90;;;;;;5039048;28;20990;-50
2021/05/28 12:51:45;;;;;;;1.40;1.30;;;18.70;50.80;;;;;;5042085;28;20442;-50
2021/05/28 12:54:23;;;;;;;2.50;1.53;;;18.80;50.80;;;;;;5043136;28;20446;-50
2021/05/28 12:56:59;;;;;;;3.63;2.17;;;18.80;51.20;;;;;;5039989;28;20438;-50